Waymart, Pennsylvania
Current Conditions -  °F | °C
As of 9:54 PM on Saturday 22 Nov 2014 (Local Time) from KAVP Reporting Station
Clear Clear  
Wind Chill: 32°   Ceiling: Unl
Heat Index: 37°   Visibility: 10mi
Dew Point: 17°   Wind: 6mph
Humidity: 44%   Direction: 230°SW
Pressure: 30.15"   Gusts: NA
Location:  41.58°N, 75.41°W
Report Text: KAVP 230254Z 23005KT 10SM CLR 03/M08 A3015 RMK AO2 SLP217 60000 T00281083 58009
Loading
Personal Weather Stations






























Interactive Weather Map New forecast layout! Learn more

10-Day Weather Forecast

Advertisements
Track Severe Weather on mobile